sensor_id;sensor_type;location;lat;lon;timestamp;pressure;altitude;pressure_sealevel;temperature;humidity
67818;BME280;54614;47.576;7.524;2024-01-06T00:02:09;97335.84;;;22.41;39.08
67818;BME280;54614;47.576;7.524;2024-01-06T00:04:34;97344.94;;;22.40;39.61
67818;BME280;54614;47.576;7.524;2024-01-06T00:07:00;97341.66;;;22.38;39.67
67818;BME280;54614;47.576;7.524;2024-01-06T00:09:26;97344.47;;;22.43;39.45
67818;BME280;54614;47.576;7.524;2024-01-06T00:11:52;97341.66;;;22.38;39.37
67818;BME280;54614;47.576;7.524;2024-01-06T00:14:17;97348.53;;;22.34;39.51
67818;BME280;54614;47.576;7.524;2024-01-06T00:16:43;97353.44;;;22.37;39.49
67818;BME280;54614;47.576;7.524;2024-01-06T00:19:09;97355.38;;;22.30;39.42
67818;BME280;54614;47.576;7.524;2024-01-06T00:21:34;97366.09;;;22.30;39.60
67818;BME280;54614;47.576;7.524;2024-01-06T00:24:00;97365.63;;;22.33;39.31
67818;BME280;54614;47.576;7.524;2024-01-06T00:26:26;97368.19;;;22.28;39.44
67818;BME280;54614;47.576;7.524;2024-01-06T00:28:51;97375.16;;;22.29;39.24
67818;BME280;54614;47.576;7.524;2024-01-06T00:31:17;97374.34;;;22.29;39.49
67818;BME280;54614;47.576;7.524;2024-01-06T00:33:43;97371.22;;;22.32;39.41
67818;BME280;54614;47.576;7.524;2024-01-06T00:36:09;97380.91;;;22.33;39.45
67818;BME280;54614;47.576;7.524;2024-01-06T00:38:35;97377.63;;;22.31;38.99
67818;BME280;54614;47.576;7.524;2024-01-06T00:41:02;97385.75;;;22.24;39.42
67818;BME280;54614;47.576;7.524;2024-01-06T00:43:28;97392.97;;;22.24;39.61
67818;BME280;54614;47.576;7.524;2024-01-06T00:45:53;97398.09;;;22.25;39.26
67818;BME280;54614;47.576;7.524;2024-01-06T00:48:19;97398.69;;;22.27;39.02
67818;BME280;54614;47.576;7.524;2024-01-06T00:50:45;97398.47;;;22.29;39.32
67818;BME280;54614;47.576;7.524;2024-01-06T00:53:12;97402.78;;;22.30;39.20
67818;BME280;54614;47.576;7.524;2024-01-06T00:55:38;97401.22;;;22.22;39.31
67818;BME280;54614;47.576;7.524;2024-01-06T00:58:04;97409.03;;;22.24;39.36
67818;BME280;54614;47.576;7.524;2024-01-06T01:00:29;97408.22;;;22.23;39.50
67818;BME280;54614;47.576;7.524;2024-01-06T01:02:55;97418.94;;;22.23;39.01
67818;BME280;54614;47.576;7.524;2024-01-06T01:05:21;97418.13;;;22.23;39.08
67818;BME280;54614;47.576;7.524;2024-01-06T01:07:46;97413.13;;;22.26;38.99
67818;BME280;54614;47.576;7.524;2024-01-06T01:10:12;97420.72;;;22.29;39.00
67818;BME280;54614;47.576;7.524;2024-01-06T01:12:38;97416.25;;;22.23;39.20
67818;BME280;54614;47.576;7.524;2024-01-06T01:15:05;97418.41;;;22.14;38.95
67818;BME280;54614;47.576;7.524;2024-01-06T01:17:31;97418.34;;;22.21;39.03
67818;BME280;54614;47.576;7.524;2024-01-06T01:19:56;97420.72;;;22.11;39.05
67818;BME280;54614;47.576;7.524;2024-01-06T01:22:22;97416.09;;;22.18;38.75
67818;BME280;54614;47.576;7.524;2024-01-06T01:24:48;97424.13;;;22.18;39.02
67818;BME280;54614;47.576;7.524;2024-01-06T01:27:14;97428.00;;;22.22;38.93
67818;BME280;54614;47.576;7.524;2024-01-06T01:29:39;97431.22;;;22.12;39.15
67818;BME280;54614;47.576;7.524;2024-01-06T01:32:06;97431.13;;;22.19;39.04
67818;BME280;54614;47.576;7.524;2024-01-06T01:34:31;97428.97;;;22.09;38.75
67818;BME280;54614;47.576;7.524;2024-01-06T01:36:57;97439.31;;;22.06;38.64
67818;BME280;54614;47.576;7.524;2024-01-06T01:39:23;97443.84;;;22.05;38.50
67818;BME280;54614;47.576;7.524;2024-01-06T01:41:48;97446.31;;;22.07;38.63
67818;BME280;54614;47.576;7.524;2024-01-06T01:44:15;97453.66;;;22.11;38.71
67818;BME280;54614;47.576;7.524;2024-01-06T01:46:41;97445.47;;;22.06;38.51
67818;BME280;54614;47.576;7.524;2024-01-06T01:49:07;97452.47;;;22.07;38.48
67818;BME280;54614;47.576;7.524;2024-01-06T01:51:35;97453.16;;;22.03;38.29
67818;BME280;54614;47.576;7.524;2024-01-06T01:54:02;97454.94;;;22.09;38.57
67818;BME280;54614;47.576;7.524;2024-01-06T01:56:31;97456.19;;;22.06;38.49
67818;BME280;54614;47.576;7.524;2024-01-06T01:59:12;97455.97;;;22.08;38.28
67818;BME280;54614;47.576;7.524;2024-01-06T02:01:41;97457.84;;;22.07;38.26
67818;BME280;54614;47.576;7.524;2024-01-06T02:04:08;97470.63;;;22.05;38.46
67818;BME280;54614;47.576;7.524;2024-01-06T02:06:34;97471.69;;;21.98;38.40
67818;BME280;54614;47.576;7.524;2024-01-06T02:09:01;97478.09;;;21.97;38.47
67818;BME280;54614;47.576;7.524;2024-01-06T02:11:27;97479.91;;;22.03;38.46
67818;BME280;54614;47.576;7.524;2024-01-06T02:13:53;97482.41;;;21.98;38.23
67818;BME280;54614;47.576;7.524;2024-01-06T02:16:18;97481.13;;;22.07;38.18
67818;BME280;54614;47.576;7.524;2024-01-06T02:18:44;97480.34;;;22.00;38.29
67818;BME280;54614;47.576;7.524;2024-01-06T02:21:10;97481.94;;;22.07;38.83
67818;BME280;54614;47.576;7.524;2024-01-06T02:23:36;97484.53;;;22.14;38.39
67818;BME280;54614;47.576;7.524;2024-01-06T02:26:03;97487.00;;;22.15;38.45
67818;BME280;54614;47.576;7.524;2024-01-06T02:28:29;97483.28;;;22.16;38.32
67818;BME280;54614;47.576;7.524;2024-01-06T02:30:54;97486.56;;;22.18;38.35
67818;BME280;54614;47.576;7.524;2024-01-06T02:33:20;97491.53;;;22.15;38.62
67818;BME280;54614;47.576;7.524;2024-01-06T02:35:49;97485.13;;;22.16;38.35
67818;BME280;54614;47.576;7.524;2024-01-06T02:38:14;97487.44;;;22.12;38.40
67818;BME280;54614;47.576;7.524;2024-01-06T02:40:40;97489.91;;;22.14;38.71
67818;BME280;54614;47.576;7.524;2024-01-06T02:43:06;97492.81;;;22.12;38.23
67818;BME280;54614;47.576;7.524;2024-01-06T02:45:31;97490.94;;;22.13;38.52
67818;BME280;54614;47.576;7.524;2024-01-06T02:47:57;97495.03;;;22.15;38.53
67818;BME280;54614;47.576;7.524;2024-01-06T02:50:23;97489.31;;;22.12;38.14
67818;BME280;54614;47.576;7.524;2024-01-06T02:52:48;97503.06;;;22.15;38.46
67818;BME280;54614;47.576;7.524;2024-01-06T02:55:14;97494.22;;;22.15;38.43
67818;BME280;54614;47.576;7.524;2024-01-06T02:57:40;97495.25;;;22.14;38.31
67818;BME280;54614;47.576;7.524;2024-01-06T03:00:08;97505.16;;;22.13;38.43
67818;BME280;54614;47.576;7.524;2024-01-06T03:02:34;97503.28;;;22.14;38.18
67818;BME280;54614;47.576;7.524;2024-01-06T03:05:02;97503.34;;;22.07;38.65
67818;BME280;54614;47.576;7.524;2024-01-06T03:07:27;97503.34;;;22.07;38.66
67818;BME280;54614;47.576;7.524;2024-01-06T03:09:53;97490.13;;;22.12;38.40
67818;BME280;54614;47.576;7.524;2024-01-06T03:12:19;97486.84;;;22.10;38.31
67818;BME280;54614;47.576;7.524;2024-01-06T03:14:45;97489.16;;;22.07;38.46
67818;BME280;54614;47.576;7.524;2024-01-06T03:17:10;97488.78;;;22.03;38.51
67818;BME280;54614;47.576;7.524;2024-01-06T03:19:36;97491.22;;;22.05;38.64
67818;BME280;54614;47.576;7.524;2024-01-06T03:22:02;97494.50;;;22.07;38.15
67818;BME280;54614;47.576;7.524;2024-01-06T03:24:28;97499.19;;;22.11;38.43
67818;BME280;54614;47.576;7.524;2024-01-06T03:26:54;97493.69;;;22.06;38.11
67818;BME280;54614;47.576;7.524;2024-01-06T03:29:20;97501.34;;;22.03;38.20
67818;BME280;54614;47.576;7.524;2024-01-06T03:31:46;97494.53;;;22.00;38.47
67818;BME280;54614;47.576;7.524;2024-01-06T03:34:12;97500.31;;;22.04;38.31
67818;BME280;54614;47.576;7.524;2024-01-06T03:36:39;97498.44;;;22.04;38.24
67818;BME280;54614;47.576;7.524;2024-01-06T03:39:06;97499.69;;;22.02;38.34
67818;BME280;54614;47.576;7.524;2024-01-06T03:41:32;97509.56;;;22.01;38.50
67818;BME280;54614;47.576;7.524;2024-01-06T03:43:58;97503.78;;;22.04;38.09
67818;BME280;54614;47.576;7.524;2024-01-06T03:46:24;97500.31;;;22.04;38.23
67818;BME280;54614;47.576;7.524;2024-01-06T03:48:50;97494.16;;;21.97;38.53
67818;BME280;54614;47.576;7.524;2024-01-06T03:51:16;97484.50;;;21.96;38.29
67818;BME280;54614;47.576;7.524;2024-01-06T03:53:42;97485.09;;;21.98;38.34
67818;BME280;54614;47.576;7.524;2024-01-06T03:56:08;97491.25;;;21.98;38.35
67818;BME280;54614;47.576;7.524;2024-01-06T03:58:34;97493.13;;;21.98;38.15
67818;BME280;54614;47.576;7.524;2024-01-06T04:01:00;97497.22;;;22.00;38.06
67818;BME280;54614;47.576;7.524;2024-01-06T04:03:26;97501.59;;;21.95;38.07
67818;BME280;54614;47.576;7.524;2024-01-06T04:05:52;97505.09;;;21.95;38.21
67818;BME280;54614;47.576;7.524;2024-01-06T04:08:18;97507.78;;;21.95;38.26
67818;BME280;54614;47.576;7.524;2024-01-06T04:10:44;97506.72;;;21.96;38.07
67818;BME280;54614;47.576;7.524;2024-01-06T04:13:16;97505.31;;;21.94;38.05
67818;BME280;54614;47.576;7.524;2024-01-06T04:15:41;97506.94;;;21.95;37.99
67818;BME280;54614;47.576;7.524;2024-01-06T04:18:07;97505.31;;;21.94;37.65
67818;BME280;54614;47.576;7.524;2024-01-06T04:20:34;97509.84;;;21.93;37.88
67818;BME280;54614;47.576;7.524;2024-01-06T04:23:00;97502.84;;;21.92;38.07
67818;BME280;54614;47.576;7.524;2024-01-06T04:25:26;97508.22;;;21.92;38.10
67818;BME280;54614;47.576;7.524;2024-01-06T04:27:51;97507.38;;;21.92;37.80
67818;BME280;54614;47.576;7.524;2024-01-06T04:30:17;97507.38;;;21.92;37.86
67818;BME280;54614;47.576;7.524;2024-01-06T04:32:43;97505.97;;;21.89;37.73
67818;BME280;54614;47.576;7.524;2024-01-06T04:35:10;97510.13;;;21.85;37.98
67818;BME280;54614;47.576;7.524;2024-01-06T04:37:36;97507.22;;;21.86;37.90
67818;BME280;54614;47.576;7.524;2024-01-06T04:40:03;97506.78;;;21.90;37.69
67818;BME280;54614;47.576;7.524;2024-01-06T04:42:29;97512.97;;;21.90;37.96
67818;BME280;54614;47.576;7.524;2024-01-06T04:44:55;97513.78;;;21.91;38.04
67818;BME280;54614;47.576;7.524;2024-01-06T04:47:21;97515.03;;;21.88;37.58
67818;BME280;54614;47.576;7.524;2024-01-06T04:49:46;97515.25;;;21.86;37.94
67818;BME280;54614;47.576;7.524;2024-01-06T04:52:12;97524.34;;;21.85;37.83
67818;BME280;54614;47.576;7.524;2024-01-06T04:54:38;97521.44;;;21.87;38.09
67818;BME280;54614;47.576;7.524;2024-01-06T04:57:04;97523.06;;;21.88;38.01
67818;BME280;54614;47.576;7.524;2024-01-06T04:59:30;97518.38;;;21.83;37.91
67818;BME280;54614;47.576;7.524;2024-01-06T05:01:58;97522.31;;;21.81;37.75
67818;BME280;54614;47.576;7.524;2024-01-06T05:04:24;97518.38;;;21.83;37.79
67818;BME280;54614;47.576;7.524;2024-01-06T05:06:51;97532.19;;;21.80;37.94
67818;BME280;54614;47.576;7.524;2024-01-06T05:09:17;97531.38;;;21.80;37.66
67818;BME280;54614;47.576;7.524;2024-01-06T05:11:46;97537.94;;;21.84;37.72
67818;BME280;54614;47.576;7.524;2024-01-06T05:14:12;97543.50;;;21.82;37.71
67818;BME280;54614;47.576;7.524;2024-01-06T05:16:37;97548.25;;;21.80;37.53
67818;BME280;54614;47.576;7.524;2024-01-06T05:19:03;97549.28;;;21.79;37.82
67818;BME280;54614;47.576;7.524;2024-01-06T05:21:29;97539.63;;;21.78;37.65
67818;BME280;54614;47.576;7.524;2024-01-06T05:23:56;97546.63;;;21.79;37.64
67818;BME280;54614;47.576;7.524;2024-01-06T05:26:22;97542.91;;;21.80;37.41
67818;BME280;54614;47.576;7.524;2024-01-06T05:28:48;97543.94;;;21.79;37.59
67818;BME280;54614;47.576;7.524;2024-01-06T05:31:14;97540.66;;;21.77;37.38
67818;BME280;54614;47.576;7.524;2024-01-06T05:33:40;97545.19;;;21.77;37.66
67818;BME280;54614;47.576;7.524;2024-01-06T05:36:06;97549.28;;;21.79;37.38
67818;BME280;54614;47.576;7.524;2024-01-06T05:38:32;97557.09;;;21.81;37.51
67818;BME280;54614;47.576;7.524;2024-01-06T05:40:57;97553.00;;;21.78;37.64
67818;BME280;54614;47.576;7.524;2024-01-06T05:43:23;97551.81;;;21.74;37.41
67818;BME280;54614;47.576;7.524;2024-01-06T05:45:49;97555.09;;;21.76;37.60
67818;BME280;54614;47.576;7.524;2024-01-06T05:48:15;97555.09;;;21.76;37.21
67818;BME280;54614;47.576;7.524;2024-01-06T05:50:41;97561.47;;;21.75;37.40
67818;BME280;54614;47.576;7.524;2024-01-06T05:53:07;97555.09;;;21.76;37.66
67818;BME280;54614;47.576;7.524;2024-01-06T05:55:33;97559.22;;;21.72;37.53
67818;BME280;54614;47.576;7.524;2024-01-06T05:57:59;97560.22;;;21.78;37.63
67818;BME280;54614;47.576;7.524;2024-01-06T06:00:25;97555.09;;;21.76;37.58
67818;BME280;54614;47.576;7.524;2024-01-06T06:02:51;97562.50;;;21.74;37.67
67818;BME280;54614;47.576;7.524;2024-01-06T06:05:16;97563.78;;;21.72;37.43
67818;BME280;54614;47.576;7.524;2024-01-06T06:07:42;97566.66;;;21.70;37.42
67818;BME280;54614;47.576;7.524;2024-01-06T06:10:10;97580.47;;;21.67;37.36
67818;BME280;54614;47.576;7.524;2024-01-06T06:12:37;97580.03;;;21.70;37.60
67818;BME280;54614;47.576;7.524;2024-01-06T06:15:04;97575.50;;;21.71;37.13
67818;BME280;54614;47.576;7.524;2024-01-06T06:17:32;97578.34;;;21.76;37.38
67818;BME280;54614;47.576;7.524;2024-01-06T06:19:58;97588.25;;;21.75;37.13
67818;BME280;54614;47.576;7.524;2024-01-06T06:22:25;97594.03;;;21.72;37.39
67818;BME280;54614;47.576;7.524;2024-01-06T06:24:59;97589.09;;;21.69;37.58
67818;BME280;54614;47.576;7.524;2024-01-06T06:27:26;97600.63;;;21.70;37.28
67818;BME280;54614;47.576;7.524;2024-01-06T06:29:53;97605.97;;;21.70;37.38
67818;BME280;54614;47.576;7.524;2024-01-06T06:32:19;97604.78;;;21.66;37.53
67818;BME280;54614;47.576;7.524;2024-01-06T06:34:45;97604.56;;;21.67;37.27
67818;BME280;54614;47.576;7.524;2024-01-06T06:37:11;97602.31;;;21.64;37.15
67818;BME280;54614;47.576;7.524;2024-01-06T06:39:37;97611.34;;;21.70;37.17
67818;BME280;54614;47.576;7.524;2024-01-06T06:42:03;97610.72;;;21.68;37.34
67818;BME280;54614;47.576;7.524;2024-01-06T06:44:30;97609.09;;;21.67;37.25
67818;BME280;54614;47.576;7.524;2024-01-06T06:46:56;97610.56;;;21.63;37.54
67818;BME280;54614;47.576;7.524;2024-01-06T06:49:22;97618.38;;;21.64;37.46
67818;BME280;54614;47.576;7.524;2024-01-06T06:51:48;97610.56;;;21.63;37.20
67818;BME280;54614;47.576;7.524;2024-01-06T06:54:15;97611.81;;;21.60;37.56
67818;BME280;54614;47.576;7.524;2024-01-06T06:56:42;97613.66;;;21.60;37.17
67818;BME280;54614;47.576;7.524;2024-01-06T06:59:09;97614.28;;;21.62;37.20
67818;BME280;54614;47.576;7.524;2024-01-06T07:01:35;97615.91;;;21.63;37.56
67818;BME280;54614;47.576;7.524;2024-01-06T07:04:02;97626.38;;;21.71;37.40
67818;BME280;54614;47.576;7.524;2024-01-06T07:06:28;97621.88;;;21.65;37.29
67818;BME280;54614;47.576;7.524;2024-01-06T07:08:55;97624.34;;;21.66;37.27
67818;BME280;54614;47.576;7.524;2024-01-06T07:11:21;97631.97;;;21.63;37.25
67818;BME280;54614;47.576;7.524;2024-01-06T07:13:47;97628.88;;;21.66;37.09
67818;BME280;54614;47.576;7.524;2024-01-06T07:16:13;97635.25;;;21.65;37.33
67818;BME280;54614;47.576;7.524;2024-01-06T07:18:39;97634.00;;;21.67;37.22
67818;BME280;54614;47.576;7.524;2024-01-06T07:21:05;97635.47;;;21.63;36.97
67818;BME280;54614;47.576;7.524;2024-01-06T07:23:34;97627.25;;;21.58;37.43
67818;BME280;54614;47.576;7.524;2024-01-06T07:26:00;97640.25;;;21.54;37.19
67818;BME280;54614;47.576;7.524;2024-01-06T07:28:27;97630.75;;;21.59;37.11
67818;BME280;54614;47.576;7.524;2024-01-06T07:30:52;97638.19;;;21.57;37.73
67818;BME280;54614;47.576;7.524;2024-01-06T07:33:18;97644.75;;;21.61;37.30
67818;BME280;54614;47.576;7.524;2024-01-06T07:35:44;97639.22;;;21.55;37.58
67818;BME280;54614;47.576;7.524;2024-01-06T07:38:11;97638.19;;;21.57;37.23
67818;BME280;54614;47.576;7.524;2024-01-06T07:40:37;97638.19;;;21.57;37.52
67818;BME280;54614;47.576;7.524;2024-01-06T07:43:03;97640.03;;;21.56;37.60
67818;BME280;54614;47.576;7.524;2024-01-06T07:45:32;97634.91;;;21.54;37.52
67818;BME280;54614;47.576;7.524;2024-01-06T07:47:59;97636.75;;;21.54;37.58
67818;BME280;54614;47.576;7.524;2024-01-06T07:50:25;97635.72;;;21.55;37.48
67818;BME280;54614;47.576;7.524;2024-01-06T07:52:50;97636.97;;;21.52;37.62
67818;BME280;54614;47.576;7.524;2024-01-06T07:55:17;97640.47;;;21.53;37.18
67818;BME280;54614;47.576;7.524;2024-01-06T07:57:44;97645.00;;;21.52;37.58
67818;BME280;54614;47.576;7.524;2024-01-06T08:00:11;97645.38;;;21.56;37.24
67818;BME280;54614;47.576;7.524;2024-01-06T08:02:41;97639.59;;;21.59;37.48
67818;BME280;54614;47.576;7.524;2024-01-06T08:05:07;97651.34;;;21.58;37.26
67818;BME280;54614;47.576;7.524;2024-01-06T08:07:33;97657.09;;;21.62;37.53
67818;BME280;54614;47.576;7.524;2024-01-06T08:09:59;97655.06;;;21.57;37.51
67818;BME280;54614;47.576;7.524;2024-01-06T08:12:24;97666.97;;;21.61;37.84
67818;BME280;54614;47.576;7.524;2024-01-06T08:14:50;97665.72;;;21.64;37.78
67818;BME280;54614;47.576;7.524;2024-01-06T08:17:16;97666.13;;;21.67;38.55
67818;BME280;54614;47.576;7.524;2024-01-06T08:19:42;97670.00;;;21.71;38.26
67818;BME280;54614;47.576;7.524;2024-01-06T08:22:08;97674.50;;;21.77;38.54
67818;BME280;54614;47.576;7.524;2024-01-06T08:24:34;97680.84;;;21.83;39.08
67818;BME280;54614;47.576;7.524;2024-01-06T08:27:00;97689.88;;;21.88;39.09
67818;BME280;54614;47.576;7.524;2024-01-06T08:29:25;97691.84;;;22.00;39.30
67818;BME280;54614;47.576;7.524;2024-01-06T08:31:51;97694.38;;;21.95;39.73
67818;BME280;54614;47.576;7.524;2024-01-06T08:34:18;97700.91;;;22.05;39.56
67818;BME280;54614;47.576;7.524;2024-01-06T08:36:44;97701.09;;;22.10;39.60
67818;BME280;54614;47.576;7.524;2024-01-06T08:39:10;97709.06;;;22.17;39.89
67818;BME280;54614;47.576;7.524;2024-01-06T08:41:36;97713.56;;;22.23;39.80
67818;BME280;54614;47.576;7.524;2024-01-06T08:44:03;97717.44;;;22.27;40.03
67818;BME280;54614;47.576;7.524;2024-01-06T08:46:28;97710.06;;;22.23;40.16
67818;BME280;54614;47.576;7.524;2024-01-06T08:48:54;97713.13;;;22.26;40.21
67818;BME280;54614;47.576;7.524;2024-01-06T08:51:20;97710.84;;;22.30;39.93
67818;BME280;54614;47.576;7.524;2024-01-06T08:53:46;97713.91;;;22.33;40.31
67818;BME280;54614;47.576;7.524;2024-01-06T08:56:12;97722.16;;;22.32;40.37
67818;BME280;54614;47.576;7.524;2024-01-06T08:58:37;97711.66;;;22.30;40.45
67818;BME280;54614;47.576;7.524;2024-01-06T09:01:03;97718.22;;;22.34;40.42
67818;BME280;54614;47.576;7.524;2024-01-06T09:03:29;97722.75;;;22.34;40.67
67818;BME280;54614;47.576;7.524;2024-01-06T09:05:56;97728.34;;;22.32;41.19
67818;BME280;54614;47.576;7.524;2024-01-06T09:08:23;97722.97;;;22.32;40.33
67818;BME280;54614;47.576;7.524;2024-01-06T09:10:50;97721.13;;;22.33;40.67
67818;BME280;54614;47.576;7.524;2024-01-06T09:13:17;97725.44;;;22.34;40.46
67818;BME280;54614;47.576;7.524;2024-01-06T09:15:43;97725.44;;;22.34;39.68
67818;BME280;54614;47.576;7.524;2024-01-06T09:18:11;97724.84;;;22.32;39.85
67818;BME280;54614;47.576;7.524;2024-01-06T09:20:38;97718.66;;;22.31;40.03
67818;BME280;54614;47.576;7.524;2024-01-06T09:23:04;97723.41;;;22.29;39.45
67818;BME280;54614;47.576;7.524;2024-01-06T09:25:30;97722.59;;;22.29;41.93
67818;BME280;54614;47.576;7.524;2024-01-06T09:27:56;97727.50;;;22.32;39.98
67818;BME280;54614;47.576;7.524;2024-01-06T09:30:21;97720.28;;;22.32;39.60
67818;BME280;54614;47.576;7.524;2024-01-06T09:32:47;97724.63;;;22.33;39.69
67818;BME280;54614;47.576;7.524;2024-01-06T09:35:13;97727.47;;;22.38;42.99
67818;BME280;54614;47.576;7.524;2024-01-06T09:37:40;97726.22;;;22.41;40.56
67818;BME280;54614;47.576;7.524;2024-01-06T09:40:11;97728.44;;;22.44;40.83
67818;BME280;54614;47.576;7.524;2024-01-06T09:42:38;97725.75;;;22.44;40.59
67818;BME280;54614;47.576;7.524;2024-01-06T09:45:04;97729.88;;;22.46;39.87
67818;BME280;54614;47.576;7.524;2024-01-06T09:47:34;97731.72;;;22.46;40.23
67818;BME280;54614;47.576;7.524;2024-01-06T09:50:03;97731.94;;;22.44;40.61
67818;BME280;54614;47.576;7.524;2024-01-06T09:52:32;97746.00;;;22.40;40.03
67818;BME280;54614;47.576;7.524;2024-01-06T09:55:02;97741.41;;;22.47;41.00
67818;BME280;54614;47.576;7.524;2024-01-06T09:57:28;97752.69;;;22.56;41.08
67818;BME280;54614;47.576;7.524;2024-01-06T09:59:56;97743.06;;;22.73;56.86
67818;BME280;54614;47.576;7.524;2024-01-06T10:02:22;97738.13;;;22.70;58.75
67818;BME280;54614;47.576;7.524;2024-01-06T10:04:50;97744.59;;;22.62;55.56
67818;BME280;54614;47.576;7.524;2024-01-06T10:07:16;97748.34;;;22.55;54.34
67818;BME280;54614;47.576;7.524;2024-01-06T10:09:42;97750.16;;;22.61;50.55
67818;BME280;54614;47.576;7.524;2024-01-06T10:12:09;97738.78;;;22.65;48.16
67818;BME280;54614;47.576;7.524;2024-01-06T10:14:35;97743.50;;;22.70;48.03
67818;BME280;54614;47.576;7.524;2024-01-06T10:17:02;97738.94;;;22.70;45.22
67818;BME280;54614;47.576;7.524;2024-01-06T10:19:31;97747.16;;;22.75;46.68
67818;BME280;54614;47.576;7.524;2024-01-06T10:21:56;97740.53;;;22.78;46.44
67818;BME280;54614;47.576;7.524;2024-01-06T10:24:26;97735.81;;;22.80;45.52
67818;BME280;54614;47.576;7.524;2024-01-06T10:26:52;97741.56;;;22.77;44.85
67818;BME280;54614;47.576;7.524;2024-01-06T10:29:18;97738.06;;;22.76;44.42
67818;BME280;54614;47.576;7.524;2024-01-06T10:31:43;97739.50;;;22.79;44.62
67818;BME280;54614;47.576;7.524;2024-01-06T10:34:09;97741.53;;;22.83;44.28
67818;BME280;54614;47.576;7.524;2024-01-06T10:36:36;97735.75;;;22.87;45.16
67818;BME280;54614;47.576;7.524;2024-01-06T10:39:03;97732.84;;;22.88;44.82
67818;BME280;54614;47.576;7.524;2024-01-06T10:41:30;97735.66;;;22.93;44.75
67818;BME280;54614;47.576;7.524;2024-01-06T10:44:00;97730.69;;;22.97;44.84
67818;BME280;54614;47.576;7.524;2024-01-06T10:46:29;97735.00;;;22.98;44.65
67818;BME280;54614;47.576;7.524;2024-01-06T10:48:58;97735.00;;;22.98;44.49
67818;BME280;54614;47.576;7.524;2024-01-06T10:51:26;97738.28;;;23.00;44.38
67818;BME280;54614;47.576;7.524;2024-01-06T10:53:53;97737.03;;;23.02;44.36
67818;BME280;54614;47.576;7.524;2024-01-06T10:56:22;97733.16;;;22.98;44.54
67818;BME280;54614;47.576;7.524;2024-01-06T10:58:49;97734.34;;;23.02;44.61
67818;BME280;54614;47.576;7.524;2024-01-06T11:01:21;97737.41;;;23.06;44.61
67818;BME280;54614;47.576;7.524;2024-01-06T11:03:48;97732.25;;;23.04;44.16
67818;BME280;54614;47.576;7.524;2024-01-06T11:06:19;97738.00;;;23.08;44.17
67818;BME280;54614;47.576;7.524;2024-01-06T11:09:15;97734.06;;;23.10;44.28
67818;BME280;54614;47.576;7.524;2024-01-06T11:11:43;97736.38;;;23.07;44.25
67818;BME280;54614;47.576;7.524;2024-01-06T11:14:27;97740.69;;;23.08;44.30
67818;BME280;54614;47.576;7.524;2024-01-06T11:16:55;97734.28;;;23.09;43.92
67818;BME280;54614;47.576;7.524;2024-01-06T11:22:25;97728.47;;;23.12;44.14
67818;BME280;54614;47.576;7.524;2024-01-06T11:25:06;97731.75;;;23.14;43.73
67818;BME280;54614;47.576;7.524;2024-01-06T11:27:33;97726.31;;;23.21;43.91
67818;BME280;54614;47.576;7.524;2024-01-06T11:30:02;97721.53;;;23.23;44.50
67818;BME280;54614;47.576;7.524;2024-01-06T11:32:37;97726.09;;;23.22;44.35
67818;BME280;54614;47.576;7.524;2024-01-06T11:35:07;97728.31;;;23.25;44.67
67818;BME280;54614;47.576;7.524;2024-01-06T11:43:07;97726.25;;;23.27;44.69
67818;BME280;54614;47.576;7.524;2024-01-06T11:45:38;97721.09;;;23.26;44.91
67818;BME280;54614;47.576;7.524;2024-01-06T11:48:08;97713.88;;;23.26;45.21
67818;BME280;54614;47.576;7.524;2024-01-06T11:50:37;97714.09;;;23.25;44.84
67818;BME280;54614;47.576;7.524;2024-01-06T11:53:04;97712.00;;;23.27;44.79
67818;BME280;54614;47.576;7.524;2024-01-06T11:55:30;97710.38;;;23.26;44.85
67818;BME280;54614;47.576;7.524;2024-01-06T11:58:01;97710.59;;;23.24;44.74
67818;BME280;54614;47.576;7.524;2024-01-06T12:00:33;97713.88;;;23.26;44.46
67818;BME280;54614;47.576;7.524;2024-01-06T12:03:00;97705.66;;;23.21;44.16
67818;BME280;54614;47.576;7.524;2024-01-06T12:05:27;97705.88;;;23.20;44.01
67818;BME280;54614;47.576;7.524;2024-01-06T12:08:01;97703.44;;;23.18;43.68
67818;BME280;54614;47.576;7.524;2024-01-06T12:10:29;97702.16;;;23.21;43.54
67818;BME280;54614;47.576;7.524;2024-01-06T12:13:07;97704.25;;;23.19;43.15
67818;BME280;54614;47.576;7.524;2024-01-06T12:15:34;97701.34;;;23.20;43.02
67818;BME280;54614;47.576;7.524;2024-01-06T12:18:04;97705.44;;;23.23;43.00
67818;BME280;54614;47.576;7.524;2024-01-06T12:20:30;97701.72;;;23.24;42.30
67818;BME280;54614;47.576;7.524;2024-01-06T12:22:56;97699.84;;;23.24;42.71
67818;BME280;54614;47.576;7.524;2024-01-06T12:25:24;97698.00;;;23.25;42.70
67818;BME280;54614;47.576;7.524;2024-01-06T12:27:52;97699.25;;;23.22;42.64
67818;BME280;54614;47.576;7.524;2024-01-06T12:30:22;97694.72;;;23.23;42.90
67818;BME280;54614;47.576;7.524;2024-01-06T12:32:50;97700.69;;;23.25;42.57
67818;BME280;54614;47.576;7.524;2024-01-06T12:35:17;97690.47;;;23.15;42.07
67818;BME280;54614;47.576;7.524;2024-01-06T12:37:44;97699.47;;;23.21;42.99
67818;BME280;54614;47.576;7.524;2024-01-06T12:40:13;97691.06;;;23.17;42.91
67818;BME280;54614;47.576;7.524;2024-01-06T12:42:39;97694.78;;;23.16;42.30
67818;BME280;54614;47.576;7.524;2024-01-06T12:45:06;97693.75;;;23.17;42.94
67818;BME280;54614;47.576;7.524;2024-01-06T12:47:33;97698.28;;;23.17;42.66
67818;BME280;54614;47.576;7.524;2024-01-06T12:49:59;97691.66;;;23.19;42.77
67818;BME280;54614;47.576;7.524;2024-01-06T12:52:25;97689.34;;;23.23;42.54
67818;BME280;54614;47.576;7.524;2024-01-06T12:54:51;97696.66;;;23.15;42.23
67818;BME280;54614;47.576;7.524;2024-01-06T12:57:18;97702.97;;;23.21;42.56
67818;BME280;54614;47.576;7.524;2024-01-06T12:59:44;97701.66;;;23.12;42.21
67818;BME280;54614;47.576;7.524;2024-01-06T13:02:09;97696.50;;;23.10;41.58
67818;BME280;54614;47.576;7.524;2024-01-06T13:04:35;97704.41;;;23.05;41.20
67818;BME280;54614;47.576;7.524;2024-01-06T13:07:01;97704.03;;;23.02;40.56